Time;durP1;ratioP1;P1;durP2;ratioP2;P2;SDS_P1;SDS_P2;PMS_P1;PMS_P2;Temp;Humidity;BMP_temperature;BMP_pressure;BME280_temperature;BME280_humidity;BME280_pressure;Samples;Min_cycle;Max_cycle;Signal;HPM_P1;HPM_P2
2023/07/09 00:00:06;;;;;;;4.47;2.53;;;22.30;61.70;;;;;;4998668;28;20501;-66
2023/07/09 00:02:52;;;;;;;3.00;2.17;;;22.30;61.80;;;;;;5009937;28;20021;-66
2023/07/09 00:05:38;;;;;;;6.50;2.63;;;22.20;61.70;;;;;;5003875;28;20125;-65
2023/07/09 00:08:29;;;;;;;3.80;2.40;;;22.20;61.90;;;;;;5003026;28;20490;-66
2023/07/09 00:11:16;;;;;;;3.78;2.55;;;22.20;62.20;;;;;;5008833;28;20452;-66
2023/07/09 00:14:02;;;;;;;4.07;2.33;;;22.20;62.30;;;;;;5009469;28;20042;-67
2023/07/09 00:16:48;;;;;;;3.65;2.30;;;22.20;62.30;;;;;;4995786;28;20502;-66
2023/07/09 00:19:34;;;;;;;6.20;2.85;;;22.10;62.40;;;;;;5003341;28;20399;-66
2023/07/09 00:22:20;;;;;;;6.28;2.75;;;22.10;62.60;;;;;;4999969;28;20387;-66
2023/07/09 00:25:13;;;;;;;4.38;2.30;;;22.20;62.80;;;;;;5007643;28;20052;-66
2023/07/09 00:27:59;;;;;;;4.05;2.42;;;22.10;62.90;;;;;;5009806;28;20121;-65
2023/07/09 00:30:46;;;;;;;7.18;2.65;;;22.10;63.00;;;;;;5007723;28;20037;-67
2023/07/09 00:33:32;;;;;;;4.05;2.67;;;22.10;63.00;;;;;;5005248;28;20037;-68
2023/07/09 00:36:33;;;;;;;5.13;2.60;;;22.10;63.20;;;;;;5003908;28;20042;-65
2023/07/09 00:39:21;;;;;;;4.25;2.42;;;22.00;63.30;;;;;;5002142;28;20081;-65
2023/07/09 00:42:18;;;;;;;4.03;2.05;;;22.00;63.30;;;;;;5011236;28;20022;-65
2023/07/09 00:45:21;;;;;;;2.78;1.95;;;22.00;63.50;;;;;;5007239;28;20046;-65
2023/07/09 00:48:14;;;;;;;7.72;2.67;;;22.00;63.50;;;;;;4991008;28;20050;-65
2023/07/09 00:51:00;;;;;;;3.88;2.10;;;22.00;63.90;;;;;;4993309;28;20048;-65
2023/07/09 00:53:53;;;;;;;3.63;2.50;;;21.90;63.80;;;;;;4995385;28;20022;-65
2023/07/09 00:56:44;;;;;;;4.28;2.53;;;21.90;63.90;;;;;;5009375;28;20037;-65
2023/07/09 00:59:31;;;;;;;5.32;2.13;;;21.90;64.20;;;;;;5006667;28;20034;-65
2023/07/09 01:02:22;;;;;;;4.82;2.30;;;21.90;64.30;;;;;;5007554;28;20034;-65
2023/07/09 01:05:10;;;;;;;3.55;2.20;;;21.90;64.50;;;;;;5001703;28;20042;-65
2023/07/09 01:07:58;;;;;;;8.70;2.20;;;21.80;64.50;;;;;;4993757;28;20030;-64
2023/07/09 01:10:43;;;;;;;4.05;2.53;;;21.80;64.60;;;;;;5007786;28;20125;-64
2023/07/09 01:13:32;;;;;;;3.85;2.47;;;21.80;64.70;;;;;;5010646;28;20046;-64
2023/07/09 01:16:19;;;;;;;3.63;2.17;;;21.80;64.90;;;;;;5007134;28;20030;-64
2023/07/09 01:19:06;;;;;;;3.78;2.28;;;21.80;65.10;;;;;;5007027;28;20049;-64
2023/07/09 01:22:00;;;;;;;4.35;2.60;;;21.80;65.30;;;;;;4998309;28;20030;-64
2023/07/09 01:24:48;;;;;;;3.53;1.93;;;21.80;65.40;;;;;;5002955;28;20633;-64
2023/07/09 01:27:38;;;;;;;4.28;2.10;;;21.70;65.50;;;;;;5000883;28;20308;-64
2023/07/09 01:30:31;;;;;;;3.35;2.38;;;21.70;65.60;;;;;;4998839;28;20193;-64
2023/07/09 01:33:17;;;;;;;3.78;2.40;;;21.70;65.70;;;;;;5006642;28;20033;-64
2023/07/09 01:36:03;;;;;;;3.70;2.70;;;21.70;65.80;;;;;;5003279;28;20033;-64
2023/07/09 01:38:53;;;;;;;3.08;2.08;;;21.60;65.80;;;;;;5008736;28;20097;-64
2023/07/09 01:41:39;;;;;;;3.78;2.50;;;21.60;65.90;;;;;;5004330;28;20491;-65
2023/07/09 01:44:29;;;;;;;4.07;2.72;;;21.60;66.10;;;;;;4998069;28;20018;-64
2023/07/09 01:47:15;;;;;;;4.93;2.47;;;21.60;66.40;;;;;;5010514;28;20046;-64
2023/07/09 01:50:01;;;;;;;4.65;2.55;;;21.60;66.20;;;;;;5004879;28;20041;-64
2023/07/09 01:52:49;;;;;;;5.10;2.33;;;21.60;66.60;;;;;;5010163;28;20038;-64
2023/07/09 01:55:35;;;;;;;4.07;2.40;;;21.50;66.70;;;;;;5002344;28;20029;-64
2023/07/09 01:58:25;;;;;;;4.18;2.55;;;21.50;66.90;;;;;;4998986;28;20029;-64
2023/07/09 02:01:11;;;;;;;4.68;2.70;;;21.50;66.90;;;;;;4998299;28;20505;-65
2023/07/09 02:03:57;;;;;;;5.00;2.45;;;21.50;67.10;;;;;;5005876;28;20057;-66
2023/07/09 02:06:42;;;;;;;5.45;2.78;;;21.50;67.30;;;;;;4990441;28;20030;-66
2023/07/09 02:09:28;;;;;;;4.43;2.60;;;21.40;67.40;;;;;;5004126;28;20427;-66
2023/07/09 02:12:15;;;;;;;8.15;2.97;;;21.40;67.40;;;;;;5005442;28;20418;-66
2023/07/09 02:15:02;;;;;;;7.03;3.33;;;21.30;67.60;;;;;;5001485;28;20399;-66
2023/07/09 02:17:48;;;;;;;3.38;2.33;;;21.30;67.70;;;;;;5008204;28;20054;-66
2023/07/09 02:20:34;;;;;;;4.53;2.63;;;21.30;67.90;;;;;;5008127;28;20041;-66
2023/07/09 02:23:20;;;;;;;3.47;2.50;;;21.30;68.00;;;;;;4993142;28;20085;-66
2023/07/09 02:26:05;;;;;;;4.78;2.90;;;21.20;68.10;;;;;;5005383;28;20499;-66
2023/07/09 02:28:51;;;;;;;3.90;2.65;;;21.20;68.20;;;;;;4995107;28;20553;-66
2023/07/09 02:31:37;;;;;;;5.00;2.65;;;21.20;68.30;;;;;;5008362;28;20030;-65
2023/07/09 02:34:28;;;;;;;6.22;2.90;;;21.10;68.50;;;;;;4999329;28;20072;-66
2023/07/09 02:37:15;;;;;;;5.05;2.90;;;21.10;68.80;;;;;;4993684;28;20032;-66
2023/07/09 02:40:01;;;;;;;5.80;2.50;;;21.10;68.70;;;;;;5001443;28;20034;-65
2023/07/09 02:42:47;;;;;;;4.57;3.10;;;21.10;69.00;;;;;;5002363;28;20038;-65
2023/07/09 02:45:33;;;;;;;5.10;3.00;;;21.10;69.10;;;;;;5006032;28;20526;-66
2023/07/09 02:48:19;;;;;;;7.78;3.13;;;21.00;69.30;;;;;;5004749;28;20031;-66
2023/07/09 02:51:05;;;;;;;4.13;2.35;;;21.00;69.40;;;;;;5000259;28;20060;-66
2023/07/09 02:53:51;;;;;;;3.85;2.63;;;21.00;69.60;;;;;;5007504;28;20021;-66
2023/07/09 02:56:37;;;;;;;3.72;2.42;;;21.00;69.70;;;;;;5009553;28;20038;-66
2023/07/09 02:59:23;;;;;;;4.28;2.33;;;20.90;69.90;;;;;;5006703;28;20406;-66
2023/07/09 03:02:10;;;;;;;3.75;2.92;;;20.90;70.10;;;;;;5010626;28;20034;-65
2023/07/09 03:04:56;;;;;;;4.43;2.63;;;20.90;70.20;;;;;;4999916;28;20041;-66
2023/07/09 03:07:42;;;;;;;5.15;2.88;;;20.90;70.40;;;;;;5009640;28;20042;-64
2023/07/09 03:10:28;;;;;;;5.47;2.88;;;20.80;70.50;;;;;;5010468;28;20045;-65
2023/07/09 03:13:14;;;;;;;3.50;2.53;;;20.80;70.60;;;;;;5012873;28;20147;-65
2023/07/09 03:16:00;;;;;;;9.07;3.00;;;20.70;70.80;;;;;;5011060;28;20487;-65
2023/07/09 03:18:46;;;;;;;5.03;2.92;;;20.70;70.90;;;;;;4992497;28;20394;-64
2023/07/09 03:21:32;;;;;;;4.55;2.92;;;20.70;71.40;;;;;;5009758;28;20041;-65
2023/07/09 03:24:18;;;;;;;3.90;2.60;;;20.70;71.40;;;;;;5002173;28;20474;-64
2023/07/09 03:27:05;;;;;;;7.05;2.85;;;20.80;71.40;;;;;;5003772;28;20026;-65
2023/07/09 03:29:51;;;;;;;7.35;3.45;;;20.70;71.50;;;;;;5010922;28;20022;-64
2023/07/09 03:32:36;;;;;;;3.88;2.65;;;20.80;71.70;;;;;;5009821;28;20038;-65
2023/07/09 03:35:22;;;;;;;6.82;2.85;;;20.80;71.70;;;;;;5007104;28;20121;-65
2023/07/09 03:38:10;;;;;;;5.25;2.85;;;20.80;71.50;;;;;;5010661;28;20075;-65
2023/07/09 03:40:56;;;;;;;6.30;3.28;;;20.80;71.90;;;;;;5009719;28;20434;-66
2023/07/09 03:43:43;;;;;;;4.38;2.60;;;20.80;72.10;;;;;;4996228;28;20030;-67
2023/07/09 03:46:29;;;;;;;4.57;2.92;;;20.80;72.40;;;;;;5007986;28;20034;-66
2023/07/09 03:49:14;;;;;;;7.72;3.90;;;20.80;72.60;;;;;;5008857;28;20025;-66
2023/07/09 03:52:01;;;;;;;4.00;2.60;;;20.80;72.10;;;;;;5012682;28;20386;-66
2023/07/09 03:54:47;;;;;;;5.95;3.40;;;20.90;72.00;;;;;;5007552;28;20037;-66
2023/07/09 03:57:34;;;;;;;9.48;3.08;;;20.90;72.40;;;;;;5009668;28;20034;-66
2023/07/09 04:00:20;;;;;;;15.73;3.45;;;20.90;73.00;;;;;;5007945;28;20038;-65
2023/07/09 04:03:08;;;;;;;5.03;3.00;;;20.90;72.10;;;;;;5001288;28;20631;-66
2023/07/09 04:05:54;;;;;;;6.18;2.70;;;20.90;72.40;;;;;;5004535;28;20463;-67
2023/07/09 04:08:40;;;;;;;5.90;3.00;;;21.00;72.00;;;;;;5010954;28;20120;-67
2023/07/09 04:11:26;;;;;;;3.72;2.40;;;21.00;72.10;;;;;;5009998;28;20036;-66
2023/07/09 04:14:12;;;;;;;4.28;2.70;;;21.00;71.90;;;;;;4993926;28;20038;-66
2023/07/09 04:16:58;;;;;;;4.45;3.05;;;21.00;71.80;;;;;;4991644;28;20484;-66
2023/07/09 04:19:44;;;;;;;5.43;3.08;;;21.00;71.60;;;;;;4999107;28;20710;-65
2023/07/09 04:22:30;;;;;;;4.65;2.60;;;21.10;71.40;;;;;;5001200;28;20096;-66
2023/07/09 04:25:16;;;;;;;3.70;2.55;;;21.10;71.40;;;;;;5005432;28;20034;-66
2023/07/09 04:28:02;;;;;;;4.57;2.92;;;21.10;71.70;;;;;;5010119;28;20049;-67
2023/07/09 04:30:50;;;;;;;4.95;2.75;;;21.20;71.50;;;;;;5009823;28;20056;-67
2023/07/09 04:33:36;;;;;;;5.13;2.75;;;21.20;71.50;;;;;;5010500;28;20033;-66
2023/07/09 04:36:22;;;;;;;4.55;2.83;;;21.20;71.40;;;;;;4998366;28;20120;-67
2023/07/09 04:39:09;;;;;;;5.82;3.08;;;21.30;71.40;;;;;;5009712;28;20108;-67
2023/07/09 04:41:55;;;;;;;4.47;2.97;;;21.30;71.40;;;;;;4992856;28;20521;-67
2023/07/09 04:44:41;;;;;;;4.30;2.65;;;21.40;71.20;;;;;;4997647;28;20037;-66
2023/07/09 04:47:27;;;;;;;5.93;3.15;;;21.40;71.40;;;;;;5010388;28;20033;-66
2023/07/09 04:50:14;;;;;;;5.38;2.63;;;21.40;71.20;;;;;;5009896;28;20403;-66
2023/07/09 04:53:00;;;;;;;7.43;3.10;;;21.50;71.30;;;;;;5009445;28;20088;-67
2023/07/09 04:55:46;;;;;;;4.10;2.53;;;21.60;71.10;;;;;;4997188;28;20118;-67
2023/07/09 04:58:32;;;;;;;4.93;2.78;;;21.50;70.90;;;;;;4990324;28;20173;-67
2023/07/09 05:01:18;;;;;;;3.53;2.47;;;21.60;70.80;;;;;;5005404;28;20040;-66
2023/07/09 05:04:04;;;;;;;5.13;3.00;;;21.60;70.60;;;;;;5009134;28;20710;-68
2023/07/09 05:06:50;;;;;;;4.30;2.58;;;21.70;70.60;;;;;;4994944;28;20515;-66
2023/07/09 05:09:36;;;;;;;4.75;3.03;;;21.70;70.70;;;;;;5000182;28;20022;-67
2023/07/09 05:12:27;;;;;;;4.65;2.72;;;21.80;70.40;;;;;;5008786;28;20062;-68
2023/07/09 05:15:13;;;;;;;4.00;2.47;;;21.80;70.60;;;;;;5002157;28;20026;-66
2023/07/09 05:17:59;;;;;;;7.03;2.65;;;21.90;70.90;;;;;;5006606;28;20029;-69
2023/07/09 05:20:47;;;;;;;4.45;2.53;;;21.90;70.70;;;;;;5003171;28;20395;-67
2023/07/09 05:23:33;;;;;;;4.20;2.47;;;22.00;70.40;;;;;;5001226;28;20026;-67
2023/07/09 05:26:19;;;;;;;4.18;2.33;;;22.10;70.30;;;;;;5006542;28;20022;-66
2023/07/09 05:29:05;;;;;;;5.25;3.03;;;22.20;70.50;;;;;;5008439;28;20030;-67
2023/07/09 05:31:51;;;;;;;3.83;2.75;;;22.20;70.10;;;;;;5000402;28;20468;-66
2023/07/09 05:34:37;;;;;;;3.88;2.60;;;22.30;69.60;;;;;;5005002;28;20554;-66
2023/07/09 05:37:23;;;;;;;3.83;2.33;;;22.30;69.50;;;;;;5010842;28;20511;-67
2023/07/09 05:40:10;;;;;;;3.15;2.00;;;22.40;69.20;;;;;;4999029;28;20503;-67
2023/07/09 05:42:56;;;;;;;4.25;2.50;;;22.50;69.60;;;;;;4998028;28;20084;-67
2023/07/09 05:45:41;;;;;;;4.13;2.92;;;22.50;69.20;;;;;;4995684;28;20096;-67
2023/07/09 05:48:27;;;;;;;4.25;2.90;;;22.60;69.20;;;;;;5006181;28;20038;-67
2023/07/09 05:51:13;;;;;;;5.20;2.35;;;22.60;69.10;;;;;;5005424;28;20497;-67
2023/07/09 05:53:59;;;;;;;4.45;2.80;;;22.70;69.50;;;;;;5007893;28;20152;-67
2023/07/09 05:56:45;;;;;;;6.25;2.50;;;22.80;69.40;;;;;;4990184;28;20546;-68
2023/07/09 05:59:31;;;;;;;5.53;2.17;;;22.80;69.30;;;;;;5003959;28;20050;-67
2023/07/09 06:02:19;;;;;;;4.68;3.17;;;22.90;69.50;;;;;;5000256;28;20034;-68
2023/07/09 06:05:09;;;;;;;4.68;2.58;;;22.90;69.10;;;;;;4990436;28;20034;-66
2023/07/09 06:07:55;;;;;;;3.67;2.42;;;22.90;68.90;;;;;;4995256;28;20070;-67
2023/07/09 06:10:52;;;;;;;6.25;2.88;;;23.00;69.20;;;;;;5003472;28;20041;-67
2023/07/09 06:13:38;;;;;;;8.65;2.78;;;23.10;69.60;;;;;;4990594;28;20415;-67
2023/07/09 06:16:24;;;;;;;3.83;2.63;;;23.20;69.40;;;;;;5003035;28;20099;-67
2023/07/09 06:19:10;;;;;;;3.75;2.30;;;23.20;69.00;;;;;;5003551;28;20184;-67
2023/07/09 06:21:56;;;;;;;5.20;2.47;;;23.30;69.30;;;;;;5005392;28;20022;-68
2023/07/09 06:24:42;;;;;;;5.75;2.55;;;23.40;68.70;;;;;;4996473;28;20101;-68
2023/07/09 06:27:28;;;;;;;3.50;2.30;;;23.40;68.50;;;;;;5009689;28;20501;-68
2023/07/09 06:30:14;;;;;;;3.90;2.60;;;23.60;68.10;;;;;;5000342;28;20652;-76
2023/07/09 06:33:00;;;;;;;7.07;2.75;;;23.60;68.40;;;;;;5007810;28;20072;-67
2023/07/09 06:35:52;;;;;;;6.85;3.47;;;23.70;68.10;;;;;;5004234;28;20510;-68
2023/07/09 06:38:38;;;;;;;3.92;2.50;;;23.80;67.60;;;;;;5011738;28;20030;-67
2023/07/09 06:41:24;;;;;;;4.40;2.63;;;23.80;68.00;;;;;;5011965;28;20180;-66
2023/07/09 06:44:10;;;;;;;5.18;2.92;;;23.90;67.90;;;;;;5007992;28;20041;-67
2023/07/09 06:46:56;;;;;;;5.88;3.13;;;24.00;68.10;;;;;;4995250;28;20064;-68
2023/07/09 06:49:42;;;;;;;4.85;2.90;;;24.00;67.50;;;;;;4998173;28;20080;-67
2023/07/09 06:52:27;;;;;;;3.78;2.33;;;24.10;67.40;;;;;;5008222;28;20092;-67
2023/07/09 06:55:13;;;;;;;4.35;2.88;;;24.20;67.50;;;;;;5003746;28;20026;-68
2023/07/09 06:57:59;;;;;;;7.07;2.38;;;24.20;67.30;;;;;;5011170;28;20014;-68
2023/07/09 07:00:47;;;;;;;3.75;2.40;;;24.30;67.60;;;;;;5006843;28;20032;-68
2023/07/09 07:03:34;;;;;;;3.63;2.33;;;24.40;67.50;;;;;;4996690;28;20026;-68
2023/07/09 07:06:20;;;;;;;3.53;2.50;;;24.40;67.30;;;;;;5009058;28;20037;-68
2023/07/09 07:09:06;;;;;;;6.78;2.55;;;24.50;67.50;;;;;;5003342;28;20141;-68
2023/07/09 07:11:51;;;;;;;3.20;2.50;;;24.60;67.20;;;;;;5008032;28;20042;-68
2023/07/09 07:14:37;;;;;;;4.38;2.92;;;24.60;67.20;;;;;;5008216;28;20033;-68
2023/07/09 07:17:24;;;;;;;3.92;2.13;;;24.70;67.20;;;;;;5010520;28;20128;-68
2023/07/09 07:20:15;;;;;;;7.15;2.45;;;24.80;67.00;;;;;;5009688;28;20041;-68
2023/07/09 07:23:01;;;;;;;4.05;2.80;;;24.90;66.80;;;;;;5006448;28;20108;-68
2023/07/09 07:25:47;;;;;;;3.85;2.67;;;25.00;66.80;;;;;;5003613;28;20475;-68
2023/07/09 07:28:35;;;;;;;3.97;2.53;;;25.10;67.30;;;;;;5012814;28;20045;-67
2023/07/09 07:31:21;;;;;;;4.43;3.22;;;25.20;67.00;;;;;;5006793;28;20119;-69
2023/07/09 07:34:07;;;;;;;4.10;3.10;;;25.30;67.10;;;;;;5012014;28;20026;-68
2023/07/09 07:36:53;;;;;;;5.20;2.70;;;25.30;66.90;;;;;;4994628;28;20041;-68
2023/07/09 07:39:39;;;;;;;3.38;2.60;;;25.40;66.60;;;;;;5010674;28;20105;-68
2023/07/09 07:42:25;;;;;;;4.90;2.40;;;25.50;66.60;;;;;;4998569;28;20042;-68
2023/07/09 07:45:11;;;;;;;4.75;3.10;;;25.60;66.30;;;;;;5004248;28;20097;-68
2023/07/09 07:47:57;;;;;;;4.63;2.70;;;25.70;66.00;;;;;;4998639;28;20029;-68
2023/07/09 07:50:45;;;;;;;5.78;2.92;;;25.80;66.40;;;;;;5009561;28;20048;-68
2023/07/09 07:53:31;;;;;;;5.82;2.55;;;25.90;65.80;;;;;;5011158;28;20036;-68
2023/07/09 07:56:17;;;;;;;4.85;2.70;;;25.90;65.70;;;;;;5006205;28;20034;-69
2023/07/09 07:59:03;;;;;;;4.65;2.63;;;26.00;66.00;;;;;;4992215;28;20422;-69
2023/07/09 08:01:50;;;;;;;5.55;3.10;;;26.00;65.40;;;;;;5010849;28;20451;-69
2023/07/09 08:04:35;;;;;;;6.18;3.17;;;26.10;64.70;;;;;;5008754;28;20045;-70
2023/07/09 08:07:21;;;;;;;4.93;3.05;;;26.20;64.80;;;;;;4999355;28;20124;-68
2023/07/09 08:10:08;;;;;;;5.47;2.90;;;26.30;64.90;;;;;;5002415;28;20803;-72
2023/07/09 08:12:56;;;;;;;3.95;2.70;;;26.30;65.00;;;;;;4998376;28;20152;-69
2023/07/09 08:15:42;;;;;;;3.67;2.70;;;26.40;64.80;;;;;;5004084;28;20548;-69
2023/07/09 08:18:28;;;;;;;3.83;2.55;;;26.40;64.70;;;;;;4997105;28;20056;-69
2023/07/09 08:21:14;;;;;;;4.63;2.90;;;26.60;64.60;;;;;;5001936;28;20034;-69
2023/07/09 08:24:00;;;;;;;9.18;3.00;;;26.70;64.70;;;;;;5002478;28;20591;-69
2023/07/09 08:26:46;;;;;;;4.85;2.83;;;26.80;64.60;;;;;;4995623;28;20114;-69
2023/07/09 08:29:32;;;;;;;6.95;2.63;;;26.90;64.60;;;;;;4996036;28;20041;-63
2023/07/09 08:32:18;;;;;;;4.32;2.88;;;27.00;64.50;;;;;;4995469;28;20034;-64
2023/07/09 08:35:04;;;;;;;4.50;3.15;;;27.10;64.50;;;;;;5005408;28;20126;-66
2023/07/09 08:37:50;;;;;;;4.78;3.05;;;27.20;64.30;;;;;;5008193;28;20103;-64
2023/07/09 08:40:54;;;;;;;3.83;2.40;;;27.40;64.00;;;;;;4999017;28;20050;-64
2023/07/09 08:44:08;;;;;;;4.78;2.65;;;27.40;63.80;;;;;;5006014;28;20032;-63
2023/07/09 08:47:24;;;;;;;4.22;2.53;;;27.50;63.80;;;;;;4990871;28;20034;-64
2023/07/09 08:50:15;;;;;;;4.88;2.00;;;27.60;63.80;;;;;;5001259;28;20026;-65
2023/07/09 08:53:01;;;;;;;3.05;2.15;;;27.60;62.70;;;;;;5006281;28;20471;-63
2023/07/09 08:55:50;;;;;;;4.47;3.30;;;27.70;62.50;;;;;;5003055;28;20403;-64
2023/07/09 08:58:38;;;;;;;6.15;2.67;;;27.80;62.60;;;;;;5009480;28;20053;-63
2023/07/09 09:01:34;;;;;;;4.50;2.58;;;27.90;62.50;;;;;;5003002;28;20029;-64
2023/07/09 09:04:34;;;;;;;8.18;3.03;;;27.90;61.60;;;;;;4998886;28;20046;-63
2023/07/09 09:07:35;;;;;;;4.88;2.65;;;28.00;61.50;;;;;;4992422;28;20252;-63
2023/07/09 09:10:33;;;;;;;4.85;2.92;;;28.10;62.30;;;;;;5006723;28;20038;-63
2023/07/09 09:13:23;;;;;;;3.92;2.58;;;28.20;61.70;;;;;;5006729;28;20058;-64
2023/07/09 09:16:27;;;;;;;5.38;2.80;;;28.20;61.00;;;;;;5005648;28;20061;-63
2023/07/09 09:19:45;;;;;;;3.58;2.30;;;28.30;61.20;;;;;;4993826;28;20053;-64
2023/07/09 09:22:39;;;;;;;3.28;2.10;;;28.40;61.30;;;;;;4992885;28;20034;-64
2023/07/09 09:25:30;;;;;;;7.22;3.10;;;28.50;60.80;;;;;;5003072;28;20034;-64
2023/07/09 09:28:16;;;;;;;3.97;2.60;;;28.50;59.20;;;;;;4999423;28;20046;-63
2023/07/09 09:31:02;;;;;;;3.60;2.40;;;28.60;59.00;;;;;;4994549;28;20042;-63
2023/07/09 09:33:49;;;;;;;5.80;2.60;;;28.70;58.30;;;;;;4998954;28;20045;-63
2023/07/09 09:36:37;;;;;;;3.58;2.40;;;28.80;58.00;;;;;;4991628;28;20057;-63
2023/07/09 09:39:25;;;;;;;3.45;2.47;;;28.80;57.60;;;;;;4995229;28;20052;-64
2023/07/09 09:42:12;;;;;;;3.60;2.40;;;28.90;55.80;;;;;;4997400;28;20162;-63
2023/07/09 09:44:57;;;;;;;5.90;3.00;;;28.90;56.50;;;;;;5008496;28;20501;-63
2023/07/09 09:47:45;;;;;;;5.75;2.72;;;28.90;56.00;;;;;;5004223;28;20467;-63
2023/07/09 09:50:32;;;;;;;3.42;2.47;;;29.00;55.80;;;;;;4999823;28;20034;-64
2023/07/09 09:53:24;;;;;;;4.28;2.50;;;29.10;55.40;;;;;;5007753;28;20064;-63
2023/07/09 09:56:20;;;;;;;4.43;2.65;;;29.20;55.20;;;;;;5002675;28;20482;-63
2023/07/09 09:59:19;;;;;;;5.47;2.92;;;29.30;55.60;;;;;;4992983;28;20081;-64
2023/07/09 10:02:17;;;;;;;3.78;2.67;;;29.40;55.40;;;;;;5005439;28;20034;-64
2023/07/09 10:05:10;;;;;;;3.70;2.38;;;29.40;55.40;;;;;;5006604;28;20096;-64
2023/07/09 10:08:17;;;;;;;4.15;2.30;;;29.60;55.50;;;;;;5006079;28;20041;-63
2023/07/09 10:11:21;;;;;;;4.63;2.70;;;29.70;55.10;;;;;;5008000;28;20091;-63
2023/07/09 10:14:38;;;;;;;3.67;2.15;;;29.70;55.10;;;;;;5003697;28;20112;-65
2023/07/09 10:17:44;;;;;;;4.68;2.70;;;29.80;54.70;;;;;;5007877;28;20038;-66
2023/07/09 10:20:45;;;;;;;6.18;2.65;;;29.90;55.00;;;;;;4997017;28;20431;-67
2023/07/09 10:23:47;;;;;;;4.55;2.95;;;29.90;54.80;;;;;;5007831;28;20034;-66
2023/07/09 10:26:43;;;;;;;4.28;2.58;;;30.00;55.00;;;;;;5001352;28;20042;-67
2023/07/09 10:29:50;;;;;;;4.75;2.38;;;30.00;54.90;;;;;;5009923;28;20034;-68
2023/07/09 10:32:42;;;;;;;3.53;2.25;;;30.10;54.50;;;;;;5013454;28;20057;-68
2023/07/09 10:35:41;;;;;;;4.05;2.40;;;30.20;54.10;;;;;;5004089;28;20124;-67
2023/07/09 10:38:51;;;;;;;5.30;2.67;;;30.20;54.30;;;;;;5001872;28;20097;-67
2023/07/09 10:41:40;;;;;;;5.20;3.45;;;30.30;54.10;;;;;;5011563;28;20046;-66
2023/07/09 10:44:39;;;;;;;3.40;2.33;;;30.30;53.50;;;;;;5007871;28;20044;-66
2023/07/09 10:47:35;;;;;;;3.67;2.58;;;30.30;53.80;;;;;;4994354;28;20030;-66
2023/07/09 10:50:34;;;;;;;4.07;2.55;;;30.30;53.40;;;;;;5009186;28;20042;-67
2023/07/09 10:53:38;;;;;;;3.47;2.63;;;30.40;53.40;;;;;;5010342;28;20061;-74
2023/07/09 10:56:31;;;;;;;3.57;2.57;;;30.40;53.90;;;;;;5004313;28;20037;-73
2023/07/09 10:59:28;;;;;;;5.03;2.40;;;30.50;54.00;;;;;;5007209;28;20240;-75
2023/07/09 11:02:29;;;;;;;4.30;2.55;;;30.60;54.30;;;;;;5010867;28;20037;-72
2023/07/09 11:05:15;;;;;;;6.20;2.70;;;30.60;54.70;;;;;;5006477;28;20084;-75
2023/07/09 11:08:04;;;;;;;4.72;3.05;;;30.70;53.90;;;;;;5011058;28;20032;-75
2023/07/09 11:10:56;;;;;;;3.85;2.72;;;30.70;53.00;;;;;;5003385;28;20092;-72
2023/07/09 11:13:44;;;;;;;3.83;2.95;;;30.70;52.40;;;;;;5014655;28;20049;-72
2023/07/09 11:16:35;;;;;;;5.35;3.00;;;30.80;53.20;;;;;;5001786;28;20061;-72
2023/07/09 11:19:21;;;;;;;4.53;3.00;;;30.80;53.20;;;;;;4997101;28;20046;-73
2023/07/09 11:22:36;;;;;;;4.40;2.53;;;30.90;53.60;;;;;;4999435;28;20029;-72
2023/07/09 11:25:45;;;;;;;3.53;2.55;;;30.90;53.10;;;;;;5002993;28;20034;-73
2023/07/09 11:28:36;;;;;;;5.57;2.42;;;30.90;51.40;;;;;;4995883;28;20181;-73
2023/07/09 11:31:34;;;;;;;4.57;2.95;;;30.90;52.00;;;;;;4995814;28;20129;-72
2023/07/09 11:34:20;;;;;;;4.57;2.97;;;30.90;52.20;;;;;;4998608;28;20105;-72
2023/07/09 11:37:11;;;;;;;4.00;2.95;;;31.00;51.60;;;;;;4999973;28;20034;-73
2023/07/09 11:40:11;;;;;;;6.97;2.97;;;31.00;52.00;;;;;;5003924;28;20053;-78
2023/07/09 11:42:59;;;;;;;5.63;3.35;;;31.10;52.60;;;;;;5009983;28;20510;-73
2023/07/09 11:45:45;;;;;;;4.65;3.15;;;31.10;52.40;;;;;;5009147;28;20099;-73
2023/07/09 11:48:34;;;;;;;4.43;3.50;;;31.20;51.60;;;;;;5011268;28;20030;-74
2023/07/09 11:51:39;;;;;;;6.05;3.35;;;31.10;51.70;;;;;;5005027;28;20475;-73
2023/07/09 11:54:25;;;;;;;7.30;3.95;;;31.20;52.10;;;;;;5006267;28;20048;-73
2023/07/09 11:57:16;;;;;;;6.05;4.68;;;31.30;51.90;;;;;;4998171;28;20104;-74
2023/07/09 12:00:02;;;;;;;7.47;5.03;;;31.30;52.40;;;;;;5007726;28;20045;-75
2023/07/09 12:02:49;;;;;;;6.05;4.57;;;31.40;52.40;;;;;;5008576;28;20721;-73
2023/07/09 12:05:36;;;;;;;7.28;5.30;;;31.40;52.30;;;;;;5008861;28;20033;-74
2023/07/09 12:08:37;;;;;;;7.15;5.28;;;31.50;52.60;;;;;;5008871;28;20030;-75
2023/07/09 12:11:34;;;;;;;4.75;4.07;;;31.50;52.90;;;;;;4996587;28;20431;-67
2023/07/09 12:14:23;;;;;;;6.65;4.10;;;31.60;53.00;;;;;;4992152;28;20045;-67
2023/07/09 12:17:09;;;;;;;5.93;3.83;;;31.60;51.90;;;;;;5011016;28;20041;-68
2023/07/09 12:19:55;;;;;;;6.10;3.95;;;31.60;52.40;;;;;;5006577;28;20049;-67
2023/07/09 12:22:41;;;;;;;6.45;3.95;;;31.70;52.10;;;;;;5003909;28;20034;-67
2023/07/09 12:25:30;;;;;;;5.95;3.90;;;31.70;51.10;;;;;;5004965;28;20038;-73
2023/07/09 12:28:17;;;;;;;4.93;3.50;;;31.60;50.60;;;;;;5005621;28;20037;-69
2023/07/09 12:31:03;;;;;;;6.03;4.03;;;31.60;49.60;;;;;;4992895;28;20584;-69
2023/07/09 12:33:52;;;;;;;6.90;3.97;;;31.60;49.40;;;;;;5007404;28;20439;-68
2023/07/09 12:36:40;;;;;;;4.63;3.40;;;31.60;50.10;;;;;;5005306;28;20477;-69
2023/07/09 12:39:29;;;;;;;6.05;3.35;;;31.70;50.30;;;;;;5001877;28;20073;-69
2023/07/09 12:42:33;;;;;;;5.10;3.33;;;31.70;50.50;;;;;;5003187;28;20026;-69
2023/07/09 12:45:20;;;;;;;5.85;3.50;;;31.80;50.50;;;;;;4999542;28;20383;-68
2023/07/09 12:48:09;;;;;;;7.40;3.63;;;31.90;51.20;;;;;;5001606;28;20042;-68
2023/07/09 12:50:57;;;;;;;4.55;3.33;;;32.00;51.30;;;;;;5003975;28;20033;-69
2023/07/09 12:53:43;;;;;;;5.25;3.25;;;32.10;50.90;;;;;;4995857;28;20511;-68
2023/07/09 12:56:33;;;;;;;5.50;3.50;;;32.20;51.00;;;;;;4997703;28;20492;-69
2023/07/09 12:59:25;;;;;;;4.68;3.50;;;32.30;50.60;;;;;;5003830;28;20045;-68
2023/07/09 13:02:24;;;;;;;4.40;3.20;;;32.40;50.70;;;;;;5000697;28;20065;-69
2023/07/09 13:05:22;;;;;;;5.70;3.13;;;32.50;50.60;;;;;;5000277;28;20410;-68
2023/07/09 13:08:14;;;;;;;3.50;2.95;;;32.50;50.60;;;;;;5005028;28;20052;-69
2023/07/09 13:11:00;;;;;;;3.53;3.08;;;32.70;50.50;;;;;;5005261;28;20026;-69
2023/07/09 13:14:03;;;;;;;5.82;3.30;;;32.70;50.40;;;;;;4991210;28;20048;-69
2023/07/09 13:16:50;;;;;;;4.93;3.20;;;32.80;49.90;;;;;;4997443;28;20030;-69
2023/07/09 13:19:36;;;;;;;4.55;2.90;;;32.80;48.90;;;;;;5000336;28;20046;-69
2023/07/09 13:22:22;;;;;;;5.28;3.35;;;32.90;48.50;;;;;;4999927;28;20068;-69
2023/07/09 13:25:09;;;;;;;4.05;2.97;;;32.90;48.90;;;;;;5004479;28;20046;-73
2023/07/09 13:27:55;;;;;;;4.38;2.63;;;33.00;48.20;;;;;;4999123;28;20113;-75
2023/07/09 13:30:41;;;;;;;4.18;2.97;;;33.00;48.20;;;;;;5005103;28;20038;-77
2023/07/09 13:33:28;;;;;;;7.03;2.95;;;33.00;48.20;;;;;;5007133;28;20043;-70
2023/07/09 13:36:14;;;;;;;3.72;2.58;;;33.00;47.70;;;;;;4990932;28;20042;-74
2023/07/09 13:39:00;;;;;;;4.68;3.15;;;33.10;47.50;;;;;;4996666;28;20407;-75
2023/07/09 13:41:48;;;;;;;4.68;3.00;;;33.10;47.70;;;;;;5007232;28;20045;-75
2023/07/09 13:44:35;;;;;;;4.53;3.45;;;33.10;47.20;;;;;;5006715;28;20511;-77
2023/07/09 13:47:21;;;;;;;4.47;3.42;;;33.20;47.40;;;;;;4992113;28;20399;-74
2023/07/09 13:50:08;;;;;;;4.22;2.70;;;33.10;47.00;;;;;;5002699;28;20034;-75
2023/07/09 13:52:54;;;;;;;4.97;2.70;;;33.10;47.30;;;;;;5003498;28;20048;-71
2023/07/09 13:55:40;;;;;;;5.30;3.45;;;33.10;46.90;;;;;;4997662;28;20076;-71
2023/07/09 13:58:26;;;;;;;9.38;3.55;;;33.20;47.20;;;;;;4999195;28;20029;-71
2023/07/09 14:01:15;;;;;;;4.35;2.97;;;33.20;47.30;;;;;;5003870;28;20120;-71
2023/07/09 14:04:01;;;;;;;6.93;2.90;;;33.30;47.40;;;;;;5010007;28;20044;-71
2023/07/09 14:06:47;;;;;;;4.18;3.22;;;33.40;47.10;;;;;;5000352;28;20062;-71
2023/07/09 14:09:34;;;;;;;4.57;3.03;;;33.40;46.90;;;;;;5004461;28;20093;-77
2023/07/09 14:12:20;;;;;;;4.80;3.55;;;33.40;46.30;;;;;;4990870;28;20054;-73
2023/07/09 14:15:17;;;;;;;5.05;3.40;;;33.40;46.30;;;;;;5000427;28;20040;-71
2023/07/09 14:18:04;;;;;;;5.05;3.47;;;33.30;46.30;;;;;;5001630;28;20033;-72
2023/07/09 14:20:51;;;;;;;4.78;3.35;;;33.30;46.20;;;;;;5003114;28;20059;-72
2023/07/09 14:23:36;;;;;;;4.78;3.03;;;33.40;46.40;;;;;;5001382;28;20026;-72
2023/07/09 14:26:22;;;;;;;4.95;3.22;;;33.40;46.30;;;;;;5002964;28;20368;-71
2023/07/09 14:29:11;;;;;;;5.40;3.20;;;33.40;45.90;;;;;;4997799;28;20026;-72
2023/07/09 14:31:57;;;;;;;4.90;3.08;;;33.50;46.10;;;;;;4998678;28;20038;-72
2023/07/09 14:34:43;;;;;;;7.82;2.88;;;33.60;46.20;;;;;;4992848;28;20097;-72
2023/07/09 14:37:29;;;;;;;4.95;3.25;;;33.80;46.60;;;;;;4999958;28;20042;-72
2023/07/09 14:40:17;;;;;;;5.78;3.35;;;33.90;46.30;;;;;;5001799;28;20437;-71